createdAt,value
2022-12-01T00:02:30.121Z,16.51
2022-12-01T00:05:03.898Z,16.51
2022-12-01T00:07:31.606Z,16.52
2022-12-01T00:10:18.100Z,16.56
2022-12-01T00:12:47.909Z,16.54
2022-12-01T00:15:19.648Z,16.59
2022-12-01T00:17:50.345Z,16.55
2022-12-01T00:20:19.723Z,16.54
2022-12-01T00:22:58.536Z,16.56
2022-12-01T00:25:27.102Z,16.58
2022-12-01T00:27:55.539Z,16.56
2022-12-01T00:30:24.494Z,16.53
2022-12-01T00:32:52.572Z,16.53
2022-12-01T00:35:22.826Z,16.53
2022-12-01T00:37:51.371Z,16.53
2022-12-01T00:40:22.028Z,16.51
2022-12-01T00:42:53.000Z,16.48
2022-12-01T00:45:21.085Z,16.49
2022-12-01T00:47:49.743Z,16.51
2022-12-01T00:50:22.450Z,16.53
2022-12-01T00:52:54.442Z,16.50
2022-12-01T00:55:22.461Z,16.51
2022-12-01T00:57:54.159Z,16.50
2022-12-01T01:00:25.919Z,16.48
2022-12-01T01:02:54.031Z,16.51
2022-12-01T01:05:25.462Z,16.54
2022-12-01T01:07:58.048Z,16.54
2022-12-01T01:10:27.717Z,16.57
2022-12-01T01:12:56.111Z,16.54
2022-12-01T01:15:25.822Z,16.52
2022-12-01T01:17:54.551Z,16.52
2022-12-01T01:20:22.625Z,16.47
2022-12-01T01:22:51.460Z,16.47
2022-12-01T01:25:22.423Z,16.46
2022-12-01T01:27:50.579Z,16.41
2022-12-01T01:30:18.217Z,16.41
2022-12-01T01:32:47.372Z,16.36
2022-12-01T01:35:15.127Z,16.38
2022-12-01T01:37:43.761Z,16.37
2022-12-01T01:40:13.016Z,16.30
2022-12-01T01:42:42.257Z,16.32
2022-12-01T01:45:27.730Z,16.30
2022-12-01T01:47:58.596Z,16.36
2022-12-01T01:50:29.500Z,16.39
2022-12-01T01:53:05.512Z,16.36
2022-12-01T01:55:38.489Z,16.35
2022-12-01T01:58:10.741Z,16.38
2022-12-01T02:00:47.184Z,16.39
2022-12-01T02:03:21.095Z,16.39
2022-12-01T02:06:03.459Z,16.38
2022-12-01T02:08:38.893Z,16.36
2022-12-01T02:11:37.463Z,16.36
2022-12-01T02:14:40.490Z,16.24
2022-12-01T02:17:27.959Z,16.36
2022-12-01T02:20:09.773Z,16.27
2022-12-01T02:22:38.097Z,16.36
2022-12-01T02:25:16.024Z,16.34
2022-12-01T02:28:21.104Z,16.34
2022-12-01T02:30:57.360Z,16.33
2022-12-01T02:33:41.488Z,16.33
2022-12-01T02:36:37.387Z,16.30
2022-12-01T02:39:32.220Z,16.27
2022-12-01T02:42:09.058Z,16.23
2022-12-01T02:44:43.933Z,16.22
2022-12-01T02:47:17.011Z,16.24
2022-12-01T02:49:53.211Z,16.32
2022-12-01T02:52:25.611Z,16.32
2022-12-01T02:54:54.574Z,16.29
2022-12-01T02:57:23.623Z,16.25
2022-12-01T02:59:55.966Z,16.32
2022-12-01T03:02:29.897Z,16.24
2022-12-01T03:05:37.516Z,16.26
2022-12-01T03:08:38.449Z,16.30
2022-12-01T03:11:10.421Z,16.28
2022-12-01T03:14:00.922Z,16.27
2022-12-01T03:16:39.474Z,16.21
2022-12-01T03:19:33.273Z,16.23
2022-12-01T03:22:27.845Z,16.22
2022-12-01T03:25:04.393Z,16.23
2022-12-01T03:27:36.327Z,16.23
2022-12-01T03:30:11.413Z,16.21
2022-12-01T03:32:42.114Z,16.26
2022-12-01T03:35:23.630Z,16.21
2022-12-01T03:38:03.689Z,16.18
2022-12-01T03:40:33.376Z,16.10
2022-12-01T03:43:11.489Z,16.10
2022-12-01T03:46:23.678Z,16.11
2022-12-01T03:48:54.715Z,16.17
2022-12-01T03:51:33.574Z,16.13
2022-12-01T03:54:29.270Z,16.15
2022-12-01T03:57:06.221Z,16.13
2022-12-01T04:00:25.296Z,16.12
2022-12-01T04:02:57.787Z,16.10
2022-12-01T04:05:30.154Z,15.93
2022-12-01T04:07:59.650Z,16.03
2022-12-01T04:10:27.393Z,15.95
2022-12-01T04:12:59.805Z,15.98
2022-12-01T04:15:29.192Z,15.90
2022-12-01T04:17:56.237Z,16.01
2022-12-01T04:20:23.558Z,16.06
2022-12-01T04:22:53.429Z,16.00
2022-12-01T04:25:21.174Z,16.04
2022-12-01T04:27:49.112Z,16.09
2022-12-01T04:30:16.601Z,16.10
2022-12-01T04:32:46.905Z,16.05
2022-12-01T04:35:16.978Z,16.12
2022-12-01T04:37:47.576Z,16.07
2022-12-01T04:40:19.332Z,16.02
2022-12-01T04:42:46.681Z,16.07
2022-12-01T04:45:15.848Z,16.00
2022-12-01T04:47:45.966Z,16.02
2022-12-01T04:50:18.240Z,15.90
2022-12-01T04:52:48.661Z,15.95
2022-12-01T04:55:17.158Z,15.86
2022-12-01T04:57:45.896Z,15.75
2022-12-01T05:00:16.677Z,15.80
2022-12-01T05:02:46.362Z,15.75
2022-12-01T05:05:14.466Z,15.81
2022-12-01T05:07:42.181Z,15.68
2022-12-01T05:10:09.700Z,15.58
2022-12-01T05:12:37.654Z,15.64
2022-12-01T05:15:06.315Z,15.77
2022-12-01T05:17:36.967Z,15.72
2022-12-01T05:20:27.670Z,15.67
2022-12-01T05:23:06.125Z,15.75
2022-12-01T05:25:34.588Z,15.60
2022-12-01T05:28:01.934Z,15.61
2022-12-01T05:30:33.275Z,15.57
2022-12-01T05:33:00.737Z,15.60
2022-12-01T05:35:32.929Z,15.59
2022-12-01T05:38:07.772Z,15.65
2022-12-01T05:40:37.749Z,15.59
2022-12-01T05:43:08.896Z,15.63
2022-12-01T05:45:36.835Z,15.68
2022-12-01T05:48:05.249Z,15.59
2022-12-01T05:50:32.700Z,15.56
2022-12-01T05:52:59.940Z,15.61
2022-12-01T05:55:29.628Z,15.56
2022-12-01T05:57:56.830Z,15.49
2022-12-01T06:00:28.457Z,15.56
2022-12-01T06:02:59.138Z,15.58
2022-12-01T06:05:29.760Z,15.62
2022-12-01T06:07:57.208Z,15.64
2022-12-01T06:10:27.863Z,15.75
2022-12-01T06:13:03.009Z,15.77
2022-12-01T06:15:33.716Z,15.80
2022-12-01T06:18:01.374Z,15.80
2022-12-01T06:20:28.868Z,15.82
2022-12-01T06:22:59.561Z,15.80
2022-12-01T06:25:30.936Z,15.81
2022-12-01T06:27:59.075Z,15.89
2022-12-01T06:30:29.860Z,15.83
2022-12-01T06:32:58.085Z,15.81
2022-12-01T06:35:25.323Z,15.83
2022-12-01T06:37:58.241Z,15.86
2022-12-01T06:40:26.137Z,15.80
2022-12-01T06:42:53.438Z,15.88
2022-12-01T06:45:21.560Z,15.81
2022-12-01T06:47:48.990Z,15.85
2022-12-01T06:50:16.506Z,15.80
2022-12-01T06:52:44.156Z,15.81
2022-12-01T06:55:11.358Z,15.79
2022-12-01T06:57:40.415Z,15.68
2022-12-01T07:00:11.933Z,15.66
2022-12-01T07:02:39.603Z,15.65
2022-12-01T07:05:07.168Z,15.62
2022-12-01T07:07:40.369Z,15.64
2022-12-01T07:10:10.386Z,15.65
2022-12-01T07:12:37.833Z,15.65
2022-12-01T07:15:06.610Z,15.61
2022-12-01T07:17:34.587Z,15.68
2022-12-01T07:20:04.404Z,15.62
2022-12-01T07:22:32.940Z,15.71
2022-12-01T07:25:00.163Z,15.73
2022-12-01T07:27:30.355Z,15.74
2022-12-01T07:29:57.482Z,15.78
2022-12-01T07:32:24.588Z,15.74
2022-12-01T07:34:51.801Z,15.76
2022-12-01T07:37:18.885Z,15.81
2022-12-01T07:39:52.127Z,15.72
2022-12-01T07:42:19.760Z,15.80
2022-12-01T07:44:46.897Z,15.83
2022-12-01T07:47:14.807Z,15.87
2022-12-01T07:49:41.852Z,15.86
2022-12-01T07:52:09.009Z,15.89
2022-12-01T07:54:36.041Z,15.95
2022-12-01T07:57:03.127Z,15.95
2022-12-01T07:59:30.314Z,15.99
2022-12-01T08:01:57.597Z,15.94
2022-12-01T08:04:24.756Z,16.04
2022-12-01T08:06:54.321Z,15.93
2022-12-01T08:09:21.513Z,16.08
2022-12-01T08:11:48.775Z,16.07
2022-12-01T08:14:16.286Z,16.17
2022-12-01T08:16:44.187Z,16.15
2022-12-01T08:19:14.198Z,16.09
2022-12-01T08:21:44.026Z,16.09
2022-12-01T08:24:14.624Z,16.07
2022-12-01T08:26:41.764Z,16.10
2022-12-01T08:29:13.604Z,16.22
2022-12-01T08:31:44.206Z,16.25
2022-12-01T08:34:11.424Z,16.23
2022-12-01T08:36:38.585Z,16.12
2022-12-01T08:39:10.759Z,16.16
2022-12-01T08:41:37.865Z,16.26
2022-12-01T08:44:06.171Z,16.25
2022-12-01T08:46:35.127Z,16.35
2022-12-01T08:49:04.844Z,16.30
2022-12-01T08:51:33.783Z,16.34
2022-12-01T08:54:01.419Z,16.37
2022-12-01T08:56:33.855Z,16.34
2022-12-01T08:59:04.638Z,16.44
2022-12-01T09:01:33.191Z,16.53
2022-12-01T09:04:13.869Z,16.52
2022-12-01T09:06:43.540Z,16.63
2022-12-01T09:09:13.734Z,16.69
2022-12-01T09:11:41.222Z,16.70
2022-12-01T09:14:14.876Z,16.75
2022-12-01T09:16:44.305Z,16.79
2022-12-01T09:19:13.313Z,16.83
2022-12-01T09:21:45.184Z,16.87
2022-12-01T09:24:17.935Z,16.80
2022-12-01T09:26:47.393Z,16.78
2022-12-01T09:29:17.061Z,16.78
2022-12-01T09:31:44.653Z,16.75
2022-12-01T09:34:19.071Z,16.82
2022-12-01T09:36:48.591Z,16.84
2022-12-01T09:39:18.528Z,16.80
2022-12-01T09:42:02.888Z,16.85
2022-12-01T09:44:56.456Z,16.86
2022-12-01T09:47:31.267Z,16.87
2022-12-01T09:50:05.796Z,16.90
2022-12-01T09:52:42.556Z,16.80
2022-12-01T09:55:18.396Z,16.86
2022-12-01T09:57:52.784Z,16.90
2022-12-01T10:00:24.552Z,16.93
2022-12-01T10:03:01.502Z,16.99
2022-12-01T10:05:34.964Z,17.05
2022-12-01T10:08:06.467Z,17.02
2022-12-01T10:10:41.072Z,17.10
2022-12-01T10:13:19.929Z,17.07
2022-12-01T10:15:54.270Z,17.24
2022-12-01T10:18:34.734Z,17.30
2022-12-01T10:21:10.885Z,17.57
2022-12-01T10:23:52.368Z,18.37
2022-12-01T10:26:31.763Z,19.28
2022-12-01T10:29:23.248Z,19.94
2022-12-01T10:32:02.832Z,20.34
2022-12-01T10:34:38.203Z,20.56
2022-12-01T10:37:06.755Z,20.75
2022-12-01T10:39:43.617Z,20.84
2022-12-01T10:42:27.865Z,20.55
2022-12-01T10:45:01.740Z,21.57
2022-12-01T10:47:29.110Z,21.50
2022-12-01T10:50:00.071Z,21.61
2022-12-01T10:52:38.008Z,21.60
2022-12-01T10:55:28.581Z,21.77
2022-12-01T10:58:06.166Z,21.89
2022-12-01T11:03:33.520Z,21.81
2022-12-01T11:06:03.452Z,21.94
2022-12-01T11:08:41.341Z,22.23
2022-12-01T11:11:29.181Z,22.68
2022-12-01T11:14:03.203Z,23.38
2022-12-01T11:16:44.442Z,24.07
2022-12-01T11:19:26.867Z,24.73
2022-12-01T11:21:57.455Z,25.22
2022-12-01T11:24:46.084Z,25.55
2022-12-01T11:27:20.813Z,25.90
2022-12-01T11:29:51.147Z,26.87
2022-12-01T11:32:26.517Z,27.61
2022-12-01T11:35:14.085Z,28.06
2022-12-01T11:38:28.443Z,28.08
2022-12-01T11:40:52.280Z,27.95
2022-12-01T11:43:43.739Z,27.45
2022-12-01T11:49:04.832Z,26.91
2022-12-01T11:51:38.721Z,26.93
2022-12-01T11:54:19.059Z,27.37
2022-12-01T11:56:56.094Z,27.82
2022-12-01T11:59:36.059Z,28.31
2022-12-01T12:02:23.032Z,28.89
2022-12-01T12:05:19.601Z,29.40
2022-12-01T12:08:03.187Z,29.46
2022-12-01T12:10:55.226Z,30.01
2022-12-01T12:13:46.635Z,30.06
2022-12-01T12:16:34.594Z,30.08
2022-12-01T12:19:34.073Z,30.30
2022-12-01T12:22:37.718Z,30.08
2022-12-01T12:25:27.871Z,30.35
2022-12-01T12:28:21.833Z,30.78
2022-12-01T12:31:29.393Z,30.85
2022-12-01T12:34:13.974Z,31.18
2022-12-01T12:37:12.404Z,31.36
2022-12-01T12:40:07.261Z,31.45
2022-12-01T12:42:53.095Z,31.65
2022-12-01T12:45:30.325Z,31.78
2022-12-01T12:48:07.462Z,32.20
2022-12-01T12:50:57.329Z,32.03
2022-12-01T12:53:31.135Z,31.47
2022-12-01T12:56:10.387Z,31.11
2022-12-01T12:59:08.529Z,30.29
2022-12-01T13:01:48.026Z,28.94
2022-12-01T13:04:34.136Z,28.62
2022-12-01T13:07:09.837Z,27.54
2022-12-01T13:09:53.966Z,27.02
2022-12-01T13:12:40.880Z,26.42
2022-12-01T13:15:22.200Z,26.00
2022-12-01T13:18:00.448Z,25.48
2022-12-01T13:20:30.313Z,25.22
2022-12-01T13:23:03.599Z,24.50
2022-12-01T13:25:36.340Z,24.44
2022-12-01T13:28:08.153Z,24.25
2022-12-01T13:30:35.675Z,24.09
2022-12-01T13:33:07.508Z,23.96
2022-12-01T13:35:43.184Z,23.84
2022-12-01T13:38:29.773Z,23.77
2022-12-01T13:41:32.163Z,23.11
2022-12-01T13:44:01.567Z,23.42
2022-12-01T13:46:55.885Z,23.33
2022-12-01T13:49:42.813Z,23.24
2022-12-01T13:52:22.333Z,23.13
2022-12-01T13:55:10.671Z,23.13
2022-12-01T13:57:44.260Z,23.09
2022-12-01T14:00:30.543Z,23.46
2022-12-01T14:03:30.534Z,23.10
2022-12-01T14:06:20.037Z,23.74
2022-12-01T14:08:54.307Z,24.28
2022-12-01T14:11:30.672Z,24.44
2022-12-01T14:14:05.564Z,24.83
2022-12-01T14:17:02.698Z,24.97
2022-12-01T14:19:50.393Z,25.40
2022-12-01T14:22:49.145Z,25.30
2022-12-01T14:25:29.477Z,25.48
2022-12-01T14:28:04.429Z,25.45
2022-12-01T14:30:48.845Z,25.50
2022-12-01T14:33:48.647Z,24.91
2022-12-01T14:36:29.305Z,25.15
2022-12-01T14:39:21.423Z,25.11
2022-12-01T14:41:56.851Z,24.83
2022-12-01T14:44:29.059Z,24.15
2022-12-01T14:47:35.212Z,24.34
2022-12-01T14:50:24.883Z,23.98
2022-12-01T14:53:28.254Z,24.05
2022-12-01T14:56:01.705Z,24.04
2022-12-01T14:58:32.377Z,24.03
2022-12-01T15:01:05.421Z,24.08
2022-12-01T15:03:46.531Z,23.69
2022-12-01T15:06:19.828Z,23.44
2022-12-01T15:12:11.739Z,23.05
2022-12-01T15:14:53.746Z,22.67
2022-12-01T15:17:31.444Z,22.70
2022-12-01T15:20:05.804Z,22.57
2022-12-01T15:22:40.196Z,21.84
2022-12-01T15:25:15.186Z,21.89
2022-12-01T15:27:49.376Z,21.90
2022-12-01T15:30:27.725Z,21.70
2022-12-01T15:32:59.392Z,21.65
2022-12-01T15:35:31.636Z,21.43
2022-12-01T15:38:18.787Z,21.25
2022-12-01T15:41:28.337Z,21.11
2022-12-01T15:47:03.837Z,20.83
2022-12-01T15:49:37.375Z,20.78
2022-12-01T15:52:10.154Z,20.60
2022-12-01T15:54:49.917Z,20.52
2022-12-01T15:57:25.111Z,20.53
2022-12-01T16:00:05.609Z,20.36
2022-12-01T16:02:53.429Z,20.45
2022-12-01T16:05:26.185Z,20.34
2022-12-01T16:08:13.753Z,20.33
2022-12-01T16:10:47.654Z,20.31
2022-12-01T16:14:30.583Z,20.27
2022-12-01T16:17:00.756Z,20.22
2022-12-01T16:19:49.076Z,20.09
2022-12-01T16:22:31.842Z,19.91
2022-12-01T16:25:02.179Z,19.90
2022-12-01T16:27:42.199Z,19.91
2022-12-01T16:30:35.340Z,19.67
2022-12-01T16:33:22.605Z,19.76
2022-12-01T16:36:20.374Z,19.55
2022-12-01T16:38:55.432Z,19.61
2022-12-01T16:41:37.816Z,19.63
2022-12-01T16:44:29.087Z,19.49
2022-12-01T16:46:55.040Z,19.41
2022-12-01T16:49:28.983Z,19.38
2022-12-01T16:52:01.133Z,19.09
2022-12-01T16:54:37.652Z,19.15
2022-12-01T16:57:08.675Z,18.83
2022-12-01T16:59:38.885Z,18.86
2022-12-01T17:02:15.762Z,18.80
2022-12-01T17:04:55.403Z,18.79
2022-12-01T17:07:30.518Z,18.67
2022-12-01T17:10:00.972Z,18.41
2022-12-01T17:12:29.341Z,18.40
2022-12-01T17:15:04.574Z,18.55
2022-12-01T17:17:34.750Z,18.57
2022-12-01T17:20:13.833Z,18.61
2022-12-01T17:23:03.106Z,18.59
2022-12-01T17:25:43.181Z,18.39
2022-12-01T17:28:21.292Z,18.49
2022-12-01T17:31:00.645Z,18.43
2022-12-01T17:33:38.470Z,18.43
2022-12-01T17:36:19.476Z,18.46
2022-12-01T17:38:52.225Z,18.43
2022-12-01T17:44:09.388Z,18.39
2022-12-01T17:46:49.067Z,18.36
2022-12-01T17:49:19.226Z,18.31
2022-12-01T17:51:49.099Z,18.24
2022-12-01T17:54:20.379Z,18.25
2022-12-01T17:56:58.952Z,18.24
2022-12-01T17:59:31.907Z,18.24
2022-12-01T18:02:00.409Z,18.06
2022-12-01T18:04:27.896Z,18.03
2022-12-01T18:07:03.513Z,17.78
2022-12-01T18:09:43.444Z,17.73
2022-12-01T18:12:15.918Z,17.82
2022-12-01T18:14:55.162Z,17.78
2022-12-01T18:17:27.306Z,17.78
2022-12-01T18:20:10.886Z,17.79
2022-12-01T18:22:55.353Z,17.82
2022-12-01T18:25:31.055Z,17.81
2022-12-01T18:28:39.502Z,17.79
2022-12-01T18:31:19.254Z,17.77
2022-12-01T18:34:15.998Z,17.77
2022-12-01T18:36:47.531Z,17.79
2022-12-01T18:39:26.182Z,17.82
2022-12-01T18:42:05.109Z,17.65
2022-12-01T18:44:45.049Z,17.61
2022-12-01T18:47:25.931Z,17.64
2022-12-01T18:49:53.517Z,17.57
2022-12-01T18:52:23.827Z,17.63
2022-12-01T18:54:51.155Z,17.67
2022-12-01T18:57:19.337Z,17.50
2022-12-01T18:59:52.870Z,17.55
2022-12-01T19:02:25.760Z,17.41
2022-12-01T19:04:59.269Z,17.60
2022-12-01T19:07:30.381Z,17.54
2022-12-01T19:10:05.805Z,17.55
2022-12-01T19:12:50.023Z,17.57
2022-12-01T19:15:23.618Z,17.56
2022-12-01T19:17:51.118Z,17.64
2022-12-01T19:20:29.351Z,17.60
2022-12-01T19:23:07.058Z,17.30
2022-12-01T19:25:34.482Z,17.33
2022-12-01T19:28:07.362Z,17.32
2022-12-01T19:30:37.058Z,17.18
2022-12-01T19:33:04.434Z,17.06
2022-12-01T19:35:34.009Z,17.13
2022-12-01T19:38:05.137Z,17.18
2022-12-01T19:40:43.328Z,17.09
2022-12-01T19:43:18.658Z,16.97
2022-12-01T19:45:51.368Z,17.11
2022-12-01T19:48:24.003Z,17.03
2022-12-01T19:51:03.610Z,17.07
2022-12-01T19:53:42.690Z,17.03
2022-12-01T19:56:10.122Z,17.05
2022-12-01T19:58:37.371Z,17.11
2022-12-01T20:01:12.159Z,17.12
2022-12-01T20:03:50.240Z,17.12
2022-12-01T20:06:32.699Z,17.12
2022-12-01T20:09:04.775Z,17.18
2022-12-01T20:11:37.984Z,17.18
2022-12-01T20:14:11.995Z,17.12
2022-12-01T20:16:42.119Z,17.14
2022-12-01T20:19:13.548Z,17.11
2022-12-01T20:21:51.670Z,17.09
2022-12-01T20:24:32.439Z,17.01
2022-12-01T20:27:05.222Z,17.02
2022-12-01T20:29:33.016Z,16.92
2022-12-01T20:32:07.010Z,16.91
2022-12-01T20:34:43.858Z,16.83
2022-12-01T20:37:21.035Z,16.88
2022-12-01T20:39:55.051Z,16.80
2022-12-01T20:42:42.065Z,16.77
2022-12-01T20:48:05.953Z,16.66
2022-12-01T20:50:38.133Z,16.65
2022-12-01T20:53:14.642Z,16.61
2022-12-01T20:55:56.433Z,16.53
2022-12-01T20:58:26.761Z,16.53
2022-12-01T21:01:08.819Z,16.51
2022-12-01T21:03:49.305Z,16.47
2022-12-01T21:06:32.396Z,16.41
2022-12-01T21:09:07.602Z,16.32
2022-12-01T21:12:09.627Z,16.30
2022-12-01T21:14:48.883Z,16.27
2022-12-01T21:17:37.842Z,16.18
2022-12-01T21:20:24.675Z,16.04
2022-12-01T21:23:11.858Z,15.94
2022-12-01T21:25:43.727Z,16.00
2022-12-01T21:28:28.472Z,15.86
2022-12-01T21:31:05.178Z,15.82
2022-12-01T21:33:39.317Z,15.81
2022-12-01T21:36:22.757Z,15.82
2022-12-01T21:39:26.642Z,15.83
2022-12-01T21:42:16.936Z,15.81
2022-12-01T21:44:49.203Z,15.80
2022-12-01T21:47:20.844Z,15.78
2022-12-01T21:50:05.684Z,15.66
2022-12-01T21:52:49.337Z,15.62
2022-12-01T21:55:20.998Z,15.61
2022-12-01T21:57:55.091Z,15.63
2022-12-01T22:00:44.633Z,15.58
2022-12-01T22:03:36.091Z,15.55
2022-12-01T22:06:31.115Z,15.53
2022-12-01T22:09:08.467Z,15.54
2022-12-01T22:11:36.053Z,15.57
2022-12-01T22:14:09.497Z,15.57
2022-12-01T22:16:46.260Z,15.47
2022-12-01T22:19:25.561Z,15.45
2022-12-01T22:22:23.613Z,15.32
2022-12-01T22:25:02.252Z,15.25
2022-12-01T22:27:41.372Z,15.33
2022-12-01T22:30:11.285Z,15.32
2022-12-01T22:32:56.295Z,15.36
2022-12-01T22:35:29.032Z,15.31
2022-12-01T22:38:14.384Z,15.25
2022-12-01T22:41:12.024Z,15.19
2022-12-01T22:43:50.015Z,15.08
2022-12-01T22:46:44.592Z,15.19
2022-12-01T22:49:22.386Z,15.16
2022-12-01T22:52:20.766Z,15.19
2022-12-01T22:54:53.406Z,15.19
2022-12-01T22:57:35.177Z,15.16
2022-12-01T23:00:18.153Z,15.11
2022-12-01T23:02:48.516Z,15.09
2022-12-01T23:05:29.801Z,15.05
2022-12-01T23:07:59.820Z,15.02
2022-12-01T23:10:35.095Z,14.93
2022-12-01T23:13:22.833Z,14.88
2022-12-01T23:15:57.687Z,14.88
2022-12-01T23:18:32.390Z,14.85
2022-12-01T23:21:02.100Z,14.85
2022-12-01T23:23:35.325Z,14.83
2022-12-01T23:26:09.118Z,14.76
2022-12-01T23:28:41.595Z,14.73
2022-12-01T23:31:09.785Z,14.75
2022-12-01T23:33:41.414Z,14.79
2022-12-01T23:36:23.296Z,14.71
2022-12-01T23:38:53.490Z,14.71
2022-12-01T23:41:40.588Z,14.73
2022-12-01T23:44:20.587Z,14.57
2022-12-01T23:46:56.722Z,14.52
2022-12-01T23:49:32.891Z,14.55
2022-12-01T23:52:02.596Z,14.60
2022-12-01T23:54:35.120Z,14.53
2022-12-01T23:57:14.883Z,14.57
2022-12-01T23:59:45.459Z,14.53
